sensor_id;sensor_type;location;lat;lon;timestamp;P1;durP1;ratioP1;P2;durP2;ratioP2
1410;SDS011;700;51.906;8.404;2023-04-25T00:04:31;13.20;;;4.83;;
1410;SDS011;700;51.906;8.404;2023-04-25T00:09:34;12.50;;;5.57;;
1410;SDS011;700;51.906;8.404;2023-04-25T00:14:35;10.57;;;5.20;;
1410;SDS011;700;51.906;8.404;2023-04-25T00:19:35;16.83;;;5.90;;
1410;SDS011;700;51.906;8.404;2023-04-25T00:24:37;11.47;;;6.03;;
1410;SDS011;700;51.906;8.404;2023-04-25T00:29:38;13.03;;;5.40;;
1410;SDS011;700;51.906;8.404;2023-04-25T00:34:38;9.60;;;4.63;;
1410;SDS011;700;51.906;8.404;2023-04-25T00:39:39;11.40;;;5.80;;
1410;SDS011;700;51.906;8.404;2023-04-25T00:44:43;8.33;;;5.07;;
1410;SDS011;700;51.906;8.404;2023-04-25T00:49:45;12.13;;;5.43;;
1410;SDS011;700;51.906;8.404;2023-04-25T00:54:45;20.53;;;6.23;;
1410;SDS011;700;51.906;8.404;2023-04-25T00:59:48;12.70;;;5.30;;
1410;SDS011;700;51.906;8.404;2023-04-25T01:04:51;12.13;;;5.80;;
1410;SDS011;700;51.906;8.404;2023-04-25T01:09:55;12.73;;;6.47;;
1410;SDS011;700;51.906;8.404;2023-04-25T01:15:00;13.80;;;5.90;;
1410;SDS011;700;51.906;8.404;2023-04-25T01:20:04;14.23;;;5.70;;
1410;SDS011;700;51.906;8.404;2023-04-25T01:25:09;14.90;;;6.37;;
1410;SDS011;700;51.906;8.404;2023-04-25T01:30:13;8.93;;;6.07;;
1410;SDS011;700;51.906;8.404;2023-04-25T01:35:16;7.90;;;5.50;;
1410;SDS011;700;51.906;8.404;2023-04-25T01:40:17;12.00;;;6.27;;
1410;SDS011;700;51.906;8.404;2023-04-25T01:45:19;9.87;;;6.73;;
1410;SDS011;700;51.906;8.404;2023-04-25T01:50:20;15.27;;;6.73;;
1410;SDS011;700;51.906;8.404;2023-04-25T01:55:20;12.80;;;6.63;;
1410;SDS011;700;51.906;8.404;2023-04-25T02:00:21;14.83;;;6.03;;
1410;SDS011;700;51.906;8.404;2023-04-25T02:05:22;12.03;;;6.77;;
1410;SDS011;700;51.906;8.404;2023-04-25T02:10:27;11.27;;;6.67;;
1410;SDS011;700;51.906;8.404;2023-04-25T02:15:28;12.43;;;6.80;;
1410;SDS011;700;51.906;8.404;2023-04-25T02:20:29;11.80;;;6.00;;
1410;SDS011;700;51.906;8.404;2023-04-25T02:25:30;16.57;;;7.10;;
1410;SDS011;700;51.906;8.404;2023-04-25T02:30:33;9.80;;;6.33;;
1410;SDS011;700;51.906;8.404;2023-04-25T02:35:35;12.33;;;7.10;;
1410;SDS011;700;51.906;8.404;2023-04-25T02:40:35;11.17;;;6.63;;
1410;SDS011;700;51.906;8.404;2023-04-25T02:45:36;8.00;;;5.40;;
1410;SDS011;700;51.906;8.404;2023-04-25T02:50:37;9.37;;;5.93;;
1410;SDS011;700;51.906;8.404;2023-04-25T02:55:40;9.07;;;5.63;;
1410;SDS011;700;51.906;8.404;2023-04-25T03:00:41;13.83;;;5.97;;
1410;SDS011;700;51.906;8.404;2023-04-25T03:05:44;8.70;;;4.90;;
1410;SDS011;700;51.906;8.404;2023-04-25T03:10:46;10.13;;;5.10;;
1410;SDS011;700;51.906;8.404;2023-04-25T03:15:47;9.93;;;5.23;;
1410;SDS011;700;51.906;8.404;2023-04-25T03:20:48;9.47;;;6.30;;
1410;SDS011;700;51.906;8.404;2023-04-25T03:25:48;10.90;;;6.30;;
1410;SDS011;700;51.906;8.404;2023-04-25T03:30:49;9.40;;;5.73;;
1410;SDS011;700;51.906;8.404;2023-04-25T03:35:50;13.87;;;6.10;;
1410;SDS011;700;51.906;8.404;2023-04-25T03:40:53;11.33;;;6.23;;
1410;SDS011;700;51.906;8.404;2023-04-25T03:45:56;12.20;;;6.20;;
1410;SDS011;700;51.906;8.404;2023-04-25T03:50:56;10.30;;;5.70;;
1410;SDS011;700;51.906;8.404;2023-04-25T03:55:57;12.63;;;5.20;;
1410;SDS011;700;51.906;8.404;2023-04-25T04:00:57;15.67;;;5.80;;
1410;SDS011;700;51.906;8.404;2023-04-25T04:06:03;13.40;;;5.17;;
1410;SDS011;700;51.906;8.404;2023-04-25T04:11:07;13.03;;;5.73;;
1410;SDS011;700;51.906;8.404;2023-04-25T04:16:10;17.63;;;5.20;;
1410;SDS011;700;51.906;8.404;2023-04-25T04:21:11;11.67;;;5.10;;
1410;SDS011;700;51.906;8.404;2023-04-25T04:26:14;21.07;;;6.33;;
1410;SDS011;700;51.906;8.404;2023-04-25T04:31:16;13.00;;;4.67;;
1410;SDS011;700;51.906;8.404;2023-04-25T04:36:19;11.57;;;5.03;;
1410;SDS011;700;51.906;8.404;2023-04-25T04:41:21;9.87;;;4.87;;
1410;SDS011;700;51.906;8.404;2023-04-25T04:46:24;18.27;;;4.77;;
1410;SDS011;700;51.906;8.404;2023-04-25T04:51:25;17.67;;;8.00;;
1410;SDS011;700;51.906;8.404;2023-04-25T04:56:29;13.33;;;5.07;;
1410;SDS011;700;51.906;8.404;2023-04-25T05:01:30;11.73;;;4.70;;
1410;SDS011;700;51.906;8.404;2023-04-25T05:06:31;15.73;;;5.43;;
1410;SDS011;700;51.906;8.404;2023-04-25T05:11:34;16.23;;;5.70;;
1410;SDS011;700;51.906;8.404;2023-04-25T05:16:35;14.93;;;5.80;;
1410;SDS011;700;51.906;8.404;2023-04-25T05:21:35;10.80;;;4.33;;
1410;SDS011;700;51.906;8.404;2023-04-25T05:26:38;17.30;;;4.70;;
1410;SDS011;700;51.906;8.404;2023-04-25T05:31:41;19.30;;;5.70;;
1410;SDS011;700;51.906;8.404;2023-04-25T05:36:42;15.43;;;5.40;;
1410;SDS011;700;51.906;8.404;2023-04-25T05:41:42;12.93;;;4.40;;
1410;SDS011;700;51.906;8.404;2023-04-25T05:46:45;12.40;;;4.70;;
1410;SDS011;700;51.906;8.404;2023-04-25T05:51:46;23.23;;;10.90;;
1410;SDS011;700;51.906;8.404;2023-04-25T05:56:47;21.13;;;5.00;;
1410;SDS011;700;51.906;8.404;2023-04-25T06:01:50;17.97;;;6.23;;
1410;SDS011;700;51.906;8.404;2023-04-25T06:06:51;16.83;;;5.20;;
1410;SDS011;700;51.906;8.404;2023-04-25T06:11:54;11.30;;;4.13;;
1410;SDS011;700;51.906;8.404;2023-04-25T06:16:57;16.37;;;5.00;;
1410;SDS011;700;51.906;8.404;2023-04-25T06:21:58;13.70;;;4.40;;
1410;SDS011;700;51.906;8.404;2023-04-25T06:26:58;12.80;;;4.27;;
1410;SDS011;700;51.906;8.404;2023-04-25T06:31:59;10.93;;;3.63;;
1410;SDS011;700;51.906;8.404;2023-04-25T06:37:00;12.90;;;5.77;;
1410;SDS011;700;51.906;8.404;2023-04-25T06:42:03;14.90;;;3.90;;
1410;SDS011;700;51.906;8.404;2023-04-25T06:47:04;12.37;;;5.40;;
1410;SDS011;700;51.906;8.404;2023-04-25T06:52:05;12.10;;;3.90;;
1410;SDS011;700;51.906;8.404;2023-04-25T06:57:05;13.67;;;3.97;;
1410;SDS011;700;51.906;8.404;2023-04-25T07:02:06;9.90;;;3.40;;
1410;SDS011;700;51.906;8.404;2023-04-25T07:07:09;14.63;;;5.47;;
1410;SDS011;700;51.906;8.404;2023-04-25T07:12:12;7.70;;;3.33;;
1410;SDS011;700;51.906;8.404;2023-04-25T07:17:13;12.93;;;3.93;;
1410;SDS011;700;51.906;8.404;2023-04-25T07:22:13;11.97;;;3.57;;
1410;SDS011;700;51.906;8.404;2023-04-25T07:27:16;14.53;;;3.70;;
1410;SDS011;700;51.906;8.404;2023-04-25T07:32:22;9.93;;;4.00;;
1410;SDS011;700;51.906;8.404;2023-04-25T07:37:25;11.80;;;3.57;;
1410;SDS011;700;51.906;8.404;2023-04-25T07:42:26;10.57;;;5.17;;
1410;SDS011;700;51.906;8.404;2023-04-25T07:47:27;7.30;;;3.13;;
1410;SDS011;700;51.906;8.404;2023-04-25T07:52:27;10.87;;;3.33;;
1410;SDS011;700;51.906;8.404;2023-04-25T07:57:31;6.80;;;2.87;;
1410;SDS011;700;51.906;8.404;2023-04-25T08:02:34;13.47;;;3.67;;
1410;SDS011;700;51.906;8.404;2023-04-25T08:07:34;10.00;;;2.57;;
1410;SDS011;700;51.906;8.404;2023-04-25T08:12:40;9.07;;;3.00;;
1410;SDS011;700;51.906;8.404;2023-04-25T08:17:43;8.13;;;2.63;;
1410;SDS011;700;51.906;8.404;2023-04-25T08:22:43;11.40;;;2.67;;
1410;SDS011;700;51.906;8.404;2023-04-25T08:27:44;8.17;;;2.67;;
1410;SDS011;700;51.906;8.404;2023-04-25T08:32:45;9.00;;;3.50;;
1410;SDS011;700;51.906;8.404;2023-04-25T08:37:45;9.07;;;3.50;;
1410;SDS011;700;51.906;8.404;2023-04-25T08:42:48;8.80;;;3.00;;
1410;SDS011;700;51.906;8.404;2023-04-25T08:47:54;9.33;;;2.67;;
1410;SDS011;700;51.906;8.404;2023-04-25T08:52:58;9.53;;;2.70;;
1410;SDS011;700;51.906;8.404;2023-04-25T08:58:06;4.53;;;2.20;;
1410;SDS011;700;51.906;8.404;2023-04-25T09:03:10;7.80;;;2.80;;
1410;SDS011;700;51.906;8.404;2023-04-25T09:08:11;5.40;;;1.90;;
1410;SDS011;700;51.906;8.404;2023-04-25T09:13:23;8.23;;;2.73;;
1410;SDS011;700;51.906;8.404;2023-04-25T09:18:29;5.10;;;2.00;;
1410;SDS011;700;51.906;8.404;2023-04-25T09:23:38;8.53;;;2.83;;
1410;SDS011;700;51.906;8.404;2023-04-25T09:28:47;7.13;;;2.20;;
1410;SDS011;700;51.906;8.404;2023-04-25T09:33:48;7.20;;;1.80;;
1410;SDS011;700;51.906;8.404;2023-04-25T09:38:48;6.50;;;1.90;;
1410;SDS011;700;51.906;8.404;2023-04-25T09:43:49;8.67;;;1.77;;
1410;SDS011;700;51.906;8.404;2023-04-25T09:48:52;6.17;;;2.23;;
1410;SDS011;700;51.906;8.404;2023-04-25T09:53:53;6.33;;;2.03;;
1410;SDS011;700;51.906;8.404;2023-04-25T09:58:54;5.80;;;2.53;;
1410;SDS011;700;51.906;8.404;2023-04-25T10:03:58;4.40;;;1.80;;
1410;SDS011;700;51.906;8.404;2023-04-25T10:09:03;3.90;;;1.77;;
1410;SDS011;700;51.906;8.404;2023-04-25T10:14:04;4.70;;;2.07;;
1410;SDS011;700;51.906;8.404;2023-04-25T10:19:08;4.73;;;2.23;;
1410;SDS011;700;51.906;8.404;2023-04-25T10:24:12;5.30;;;2.23;;
1410;SDS011;700;51.906;8.404;2023-04-25T10:29:22;5.33;;;2.10;;
1410;SDS011;700;51.906;8.404;2023-04-25T10:39:40;7.40;;;1.77;;
1410;SDS011;700;51.906;8.404;2023-04-25T10:44:47;6.17;;;1.97;;
1410;SDS011;700;51.906;8.404;2023-04-25T10:50:06;4.77;;;2.23;;
1410;SDS011;700;51.906;8.404;2023-04-25T10:55:10;4.90;;;2.73;;
1410;SDS011;700;51.906;8.404;2023-04-25T11:00:14;6.73;;;5.03;;
1410;SDS011;700;51.906;8.404;2023-04-25T11:10:31;3.10;;;1.90;;
1410;SDS011;700;51.906;8.404;2023-04-25T11:15:33;4.20;;;2.47;;
1410;SDS011;700;51.906;8.404;2023-04-25T11:20:34;8.87;;;3.43;;
1410;SDS011;700;51.906;8.404;2023-04-25T11:25:35;5.10;;;2.13;;
1410;SDS011;700;51.906;8.404;2023-04-25T11:30:36;4.57;;;2.10;;
1410;SDS011;700;51.906;8.404;2023-04-25T11:35:39;6.93;;;3.40;;
1410;SDS011;700;51.906;8.404;2023-04-25T11:40:41;3.77;;;1.73;;
1410;SDS011;700;51.906;8.404;2023-04-25T11:45:42;4.30;;;1.63;;
1410;SDS011;700;51.906;8.404;2023-04-25T11:50:47;5.37;;;1.60;;
1410;SDS011;700;51.906;8.404;2023-04-25T11:55:50;5.07;;;2.10;;
1410;SDS011;700;51.906;8.404;2023-04-25T12:00:51;4.50;;;2.63;;
1410;SDS011;700;51.906;8.404;2023-04-25T12:05:52;4.57;;;1.70;;
1410;SDS011;700;51.906;8.404;2023-04-25T12:10:52;5.30;;;1.93;;
1410;SDS011;700;51.906;8.404;2023-04-25T12:15:54;2.70;;;1.50;;
1410;SDS011;700;51.906;8.404;2023-04-25T12:20:58;5.00;;;1.73;;
1410;SDS011;700;51.906;8.404;2023-04-25T12:26:00;3.20;;;1.83;;
1410;SDS011;700;51.906;8.404;2023-04-25T12:31:03;5.63;;;3.17;;
1410;SDS011;700;51.906;8.404;2023-04-25T12:36:05;3.77;;;1.57;;
1410;SDS011;700;51.906;8.404;2023-04-25T12:41:15;4.03;;;1.77;;
1410;SDS011;700;51.906;8.404;2023-04-25T12:46:16;3.90;;;1.70;;
1410;SDS011;700;51.906;8.404;2023-04-25T12:51:19;3.53;;;1.60;;
1410;SDS011;700;51.906;8.404;2023-04-25T12:56:24;2.60;;;1.50;;
1410;SDS011;700;51.906;8.404;2023-04-25T13:01:29;4.53;;;1.60;;
1410;SDS011;700;51.906;8.404;2023-04-25T13:06:32;3.30;;;1.40;;
1410;SDS011;700;51.906;8.404;2023-04-25T13:11:40;3.10;;;1.33;;
1410;SDS011;700;51.906;8.404;2023-04-25T13:16:45;2.57;;;1.30;;
1410;SDS011;700;51.906;8.404;2023-04-25T13:21:48;7.17;;;3.93;;
1410;SDS011;700;51.906;8.404;2023-04-25T13:26:51;2.60;;;1.30;;
1410;SDS011;700;51.906;8.404;2023-04-25T13:31:52;3.13;;;1.33;;
1410;SDS011;700;51.906;8.404;2023-04-25T13:36:52;3.13;;;1.30;;
1410;SDS011;700;51.906;8.404;2023-04-25T13:41:55;3.10;;;1.47;;
1410;SDS011;700;51.906;8.404;2023-04-25T13:47:02;3.83;;;1.60;;
1410;SDS011;700;51.906;8.404;2023-04-25T13:52:05;3.40;;;1.47;;
1410;SDS011;700;51.906;8.404;2023-04-25T13:57:10;2.20;;;1.47;;
1410;SDS011;700;51.906;8.404;2023-04-25T14:02:13;3.67;;;1.20;;
1410;SDS011;700;51.906;8.404;2023-04-25T14:07:14;5.07;;;2.43;;
1410;SDS011;700;51.906;8.404;2023-04-25T14:12:17;4.93;;;1.60;;
1410;SDS011;700;51.906;8.404;2023-04-25T14:17:18;6.47;;;1.60;;
1410;SDS011;700;51.906;8.404;2023-04-25T14:22:19;7.63;;;2.90;;
1410;SDS011;700;51.906;8.404;2023-04-25T14:27:23;2.87;;;1.40;;
1410;SDS011;700;51.906;8.404;2023-04-25T14:32:23;4.53;;;1.70;;
1410;SDS011;700;51.906;8.404;2023-04-25T14:37:24;5.00;;;1.80;;
1410;SDS011;700;51.906;8.404;2023-04-25T14:42:25;5.20;;;2.13;;
1410;SDS011;700;51.906;8.404;2023-04-25T14:47:27;11.07;;;5.90;;
1410;SDS011;700;51.906;8.404;2023-04-25T14:52:28;3.40;;;1.50;;
1410;SDS011;700;51.906;8.404;2023-04-25T14:57:30;4.63;;;1.97;;
1410;SDS011;700;51.906;8.404;2023-04-25T15:02:36;6.43;;;1.90;;
1410;SDS011;700;51.906;8.404;2023-04-25T15:07:37;4.77;;;1.97;;
1410;SDS011;700;51.906;8.404;2023-04-25T15:12:39;4.43;;;1.90;;
1410;SDS011;700;51.906;8.404;2023-04-25T15:17:43;5.37;;;2.57;;
1410;SDS011;700;51.906;8.404;2023-04-25T15:22:46;7.20;;;4.40;;
1410;SDS011;700;51.906;8.404;2023-04-25T15:27:50;5.23;;;1.80;;
1410;SDS011;700;51.906;8.404;2023-04-25T15:32:51;3.60;;;2.10;;
1410;SDS011;700;51.906;8.404;2023-04-25T15:37:52;7.43;;;2.07;;
1410;SDS011;700;51.906;8.404;2023-04-25T15:42:53;5.57;;;2.13;;
1410;SDS011;700;51.906;8.404;2023-04-25T15:47:55;4.43;;;1.90;;
1410;SDS011;700;51.906;8.404;2023-04-25T15:52:56;2.90;;;1.40;;
1410;SDS011;700;51.906;8.404;2023-04-25T15:58:01;2.90;;;1.60;;
1410;SDS011;700;51.906;8.404;2023-04-25T16:03:02;4.47;;;2.27;;
1410;SDS011;700;51.906;8.404;2023-04-25T16:08:04;4.00;;;2.10;;
1410;SDS011;700;51.906;8.404;2023-04-25T16:13:04;6.07;;;1.57;;
1410;SDS011;700;51.906;8.404;2023-04-25T16:18:05;5.53;;;2.40;;
1410;SDS011;700;51.906;8.404;2023-04-25T16:23:08;3.40;;;1.97;;
1410;SDS011;700;51.906;8.404;2023-04-25T16:28:09;5.00;;;3.20;;
1410;SDS011;700;51.906;8.404;2023-04-25T16:33:10;4.87;;;2.27;;
1410;SDS011;700;51.906;8.404;2023-04-25T16:38:13;5.70;;;2.03;;
1410;SDS011;700;51.906;8.404;2023-04-25T16:43:16;3.80;;;1.53;;
1410;SDS011;700;51.906;8.404;2023-04-25T16:48:18;3.27;;;1.90;;
1410;SDS011;700;51.906;8.404;2023-04-25T16:53:25;4.07;;;1.60;;
1410;SDS011;700;51.906;8.404;2023-04-25T16:58:26;8.87;;;4.37;;
1410;SDS011;700;51.906;8.404;2023-04-25T17:03:28;2.57;;;2.37;;
1410;SDS011;700;51.906;8.404;2023-04-25T17:08:31;4.10;;;2.03;;
1410;SDS011;700;51.906;8.404;2023-04-25T17:13:34;5.00;;;2.03;;
1410;SDS011;700;51.906;8.404;2023-04-25T17:18:35;3.90;;;1.37;;
1410;SDS011;700;51.906;8.404;2023-04-25T17:23:41;4.50;;;1.70;;
1410;SDS011;700;51.906;8.404;2023-04-25T17:28:47;6.00;;;1.83;;
1410;SDS011;700;51.906;8.404;2023-04-25T17:33:48;2.87;;;1.50;;
1410;SDS011;700;51.906;8.404;2023-04-25T17:38:49;4.93;;;1.33;;
1410;SDS011;700;51.906;8.404;2023-04-25T17:43:52;2.30;;;1.33;;
1410;SDS011;700;51.906;8.404;2023-04-25T17:48:53;7.93;;;1.40;;
1410;SDS011;700;51.906;8.404;2023-04-25T17:53:56;8.20;;;1.87;;
1410;SDS011;700;51.906;8.404;2023-04-25T17:58:59;4.20;;;1.60;;
1410;SDS011;700;51.906;8.404;2023-04-25T18:04:02;7.70;;;2.00;;
1410;SDS011;700;51.906;8.404;2023-04-25T18:09:04;3.23;;;1.50;;
1410;SDS011;700;51.906;8.404;2023-04-25T18:14:14;4.90;;;1.60;;
1410;SDS011;700;51.906;8.404;2023-04-25T18:19:16;3.70;;;1.50;;
1410;SDS011;700;51.906;8.404;2023-04-25T18:24:23;2.40;;;1.50;;
1410;SDS011;700;51.906;8.404;2023-04-25T18:29:26;5.30;;;1.73;;
1410;SDS011;700;51.906;8.404;2023-04-25T18:34:27;4.83;;;1.30;;
1410;SDS011;700;51.906;8.404;2023-04-25T18:39:27;3.10;;;1.63;;
1410;SDS011;700;51.906;8.404;2023-04-25T18:44:30;3.33;;;1.77;;
1410;SDS011;700;51.906;8.404;2023-04-25T18:49:32;4.03;;;1.60;;
1410;SDS011;700;51.906;8.404;2023-04-25T18:54:33;3.83;;;1.90;;
1410;SDS011;700;51.906;8.404;2023-04-25T18:59:36;5.13;;;1.70;;
1410;SDS011;700;51.906;8.404;2023-04-25T19:04:44;2.90;;;1.50;;
1410;SDS011;700;51.906;8.404;2023-04-25T19:09:45;7.43;;;4.10;;
1410;SDS011;700;51.906;8.404;2023-04-25T19:14:46;2.87;;;1.50;;
1410;SDS011;700;51.906;8.404;2023-04-25T19:19:49;4.20;;;1.90;;
1410;SDS011;700;51.906;8.404;2023-04-25T19:24:52;5.53;;;1.90;;
1410;SDS011;700;51.906;8.404;2023-04-25T19:29:53;2.60;;;1.70;;
1410;SDS011;700;51.906;8.404;2023-04-25T19:35:01;7.33;;;1.90;;
1410;SDS011;700;51.906;8.404;2023-04-25T19:40:03;3.53;;;2.00;;
1410;SDS011;700;51.906;8.404;2023-04-25T19:45:06;6.27;;;2.33;;
1410;SDS011;700;51.906;8.404;2023-04-25T19:50:07;5.50;;;2.33;;
1410;SDS011;700;51.906;8.404;2023-04-25T19:55:08;4.10;;;2.40;;
1410;SDS011;700;51.906;8.404;2023-04-25T20:00:11;5.90;;;2.17;;
1410;SDS011;700;51.906;8.404;2023-04-25T20:05:14;4.80;;;2.20;;
1410;SDS011;700;51.906;8.404;2023-04-25T20:10:17;5.43;;;2.93;;
1410;SDS011;700;51.906;8.404;2023-04-25T20:15:21;8.10;;;3.23;;
1410;SDS011;700;51.906;8.404;2023-04-25T20:20:22;5.10;;;2.30;;
1410;SDS011;700;51.906;8.404;2023-04-25T20:25:22;5.37;;;2.20;;
1410;SDS011;700;51.906;8.404;2023-04-25T20:30:23;5.43;;;1.90;;
1410;SDS011;700;51.906;8.404;2023-04-25T20:35:24;5.97;;;2.53;;
1410;SDS011;700;51.906;8.404;2023-04-25T20:40:29;3.80;;;2.20;;
1410;SDS011;700;51.906;8.404;2023-04-25T20:45:32;5.73;;;2.70;;
1410;SDS011;700;51.906;8.404;2023-04-25T20:50:33;7.43;;;2.60;;
1410;SDS011;700;51.906;8.404;2023-04-25T20:55:33;5.40;;;2.40;;
1410;SDS011;700;51.906;8.404;2023-04-25T21:00:34;5.90;;;3.50;;
1410;SDS011;700;51.906;8.404;2023-04-25T21:05:35;6.60;;;3.03;;
1410;SDS011;700;51.906;8.404;2023-04-25T21:10:36;9.37;;;3.10;;
1410;SDS011;700;51.906;8.404;2023-04-25T21:15:39;6.83;;;2.97;;
1410;SDS011;700;51.906;8.404;2023-04-25T21:20:39;4.90;;;3.00;;
1410;SDS011;700;51.906;8.404;2023-04-25T21:25:42;4.10;;;2.50;;
1410;SDS011;700;51.906;8.404;2023-04-25T21:30:45;7.00;;;2.70;;
1410;SDS011;700;51.906;8.404;2023-04-25T21:35:46;4.50;;;2.67;;
1410;SDS011;700;51.906;8.404;2023-04-25T21:40:49;5.93;;;2.77;;
1410;SDS011;700;51.906;8.404;2023-04-25T21:45:49;5.27;;;2.90;;
1410;SDS011;700;51.906;8.404;2023-04-25T21:50:51;10.10;;;4.60;;
1410;SDS011;700;51.906;8.404;2023-04-25T21:55:52;4.13;;;2.93;;
1410;SDS011;700;51.906;8.404;2023-04-25T22:00:52;6.00;;;3.07;;
1410;SDS011;700;51.906;8.404;2023-04-25T22:05:55;7.20;;;2.77;;
1410;SDS011;700;51.906;8.404;2023-04-25T22:10:57;5.73;;;3.60;;
1410;SDS011;700;51.906;8.404;2023-04-25T22:16:00;8.73;;;3.87;;
1410;SDS011;700;51.906;8.404;2023-04-25T22:21:03;6.07;;;2.87;;
1410;SDS011;700;51.906;8.404;2023-04-25T22:26:06;9.33;;;3.30;;
1410;SDS011;700;51.906;8.404;2023-04-25T22:31:07;4.60;;;2.90;;
1410;SDS011;700;51.906;8.404;2023-04-25T22:36:08;6.80;;;4.20;;
1410;SDS011;700;51.906;8.404;2023-04-25T22:41:09;5.10;;;3.00;;
1410;SDS011;700;51.906;8.404;2023-04-25T22:46:15;8.33;;;3.80;;
1410;SDS011;700;51.906;8.404;2023-04-25T22:51:21;4.37;;;3.20;;
1410;SDS011;700;51.906;8.404;2023-04-25T22:56:22;7.20;;;3.60;;
1410;SDS011;700;51.906;8.404;2023-04-25T23:01:26;6.77;;;3.70;;
1410;SDS011;700;51.906;8.404;2023-04-25T23:06:27;8.77;;;3.70;;
1410;SDS011;700;51.906;8.404;2023-04-25T23:11:28;10.20;;;3.33;;
1410;SDS011;700;51.906;8.404;2023-04-25T23:16:29;7.23;;;3.53;;
1410;SDS011;700;51.906;8.404;2023-04-25T23:21:32;6.47;;;2.83;;
1410;SDS011;700;51.906;8.404;2023-04-25T23:26:36;4.43;;;2.70;;
1410;SDS011;700;51.906;8.404;2023-04-25T23:31:39;5.97;;;3.60;;
1410;SDS011;700;51.906;8.404;2023-04-25T23:36:39;7.70;;;3.30;;
1410;SDS011;700;51.906;8.404;2023-04-25T23:41:40;7.30;;;3.07;;
1410;SDS011;700;51.906;8.404;2023-04-25T23:46:41;4.53;;;2.37;;
1410;SDS011;700;51.906;8.404;2023-04-25T23:51:41;7.80;;;3.23;;
1410;SDS011;700;51.906;8.404;2023-04-25T23:56:42;7.73;;;2.80;;
